Time;durP1;ratioP1;P1;durP2;ratioP2;P2;SDS_P1;SDS_P2;PMS_P1;PMS_P2;Temp;Humidity;BMP_temperature;BMP_pressure;BME280_temperature;BME280_humidity;BME280_pressure;Samples;Min_cycle;Max_cycle;Signal;HPM_P1;HPM_P2
2023/01/30 00:01:32;;;;;;;25.17;12.13;;;-2.10;60.10;;;;;;4617954;30;115777;-78
2023/01/30 00:03:59;;;;;;;25.40;12.60;;;-2.20;60.10;;;;;;4645698;30;115048;-78
2023/01/30 00:06:26;;;;;;;32.85;15.43;;;-2.20;60.20;;;;;;4627292;30;115671;-78
2023/01/30 00:08:54;;;;;;;23.80;12.10;;;-2.20;60.20;;;;;;4604005;30;114826;-78
2023/01/30 00:11:21;;;;;;;28.30;12.55;;;-2.30;60.00;;;;;;4631205;30;115273;-78
2023/01/30 00:13:49;;;;;;;23.90;11.20;;;-2.30;60.30;;;;;;4645588;30;114711;-78
2023/01/30 00:16:17;;;;;;;23.88;11.90;;;-2.30;60.20;;;;;;4632164;30;114624;-78
2023/01/30 00:18:44;;;;;;;27.05;12.95;;;-2.30;60.20;;;;;;4617452;30;114663;-78
2023/01/30 00:21:12;;;;;;;24.60;11.65;;;-2.30;60.50;;;;;;4617995;30;115356;-78
2023/01/30 00:23:40;;;;;;;25.88;12.68;;;-2.30;60.70;;;;;;4616929;30;114766;-78
2023/01/30 00:26:07;;;;;;;26.38;14.02;;;-2.30;60.70;;;;;;4619038;30;114612;-78
2023/01/30 00:28:35;;;;;;;27.70;13.68;;;-2.30;60.80;;;;;;4632470;30;114459;-78
2023/01/30 00:31:03;;;;;;;27.80;13.43;;;-2.20;60.80;;;;;;4616736;30;115069;-78
2023/01/30 00:33:30;;;;;;;27.25;14.30;;;-2.20;60.50;;;;;;4631103;30;115888;-78
2023/01/30 00:35:57;;;;;;;30.85;15.25;;;-2.30;60.60;;;;;;4633499;30;115296;-78
2023/01/30 00:38:27;;;;;;;29.60;14.55;;;-2.30;60.40;;;;;;4634612;30;114801;-78
2023/01/30 00:40:54;;;;;;;29.13;13.80;;;-2.40;60.40;;;;;;4634933;30;115451;-78
2023/01/30 00:49:15;;;;;;;27.33;12.60;;;-2.50;60.50;;;;;;4634782;30;115424;-78
2023/01/30 00:51:42;;;;;;;27.48;14.35;;;-2.50;60.80;;;;;;4633581;30;118433;-79
2023/01/30 00:54:10;;;;;;;31.38;16.40;;;-2.50;60.70;;;;;;4648283;30;114733;-78
2023/01/30 00:56:37;;;;;;;35.72;17.42;;;-2.60;60.60;;;;;;4634122;30;114485;-79
2023/01/30 00:59:05;;;;;;;39.00;17.55;;;-2.60;60.40;;;;;;4635288;30;114520;-78
2023/01/30 01:01:32;;;;;;;34.33;16.13;;;-2.70;60.60;;;;;;4632708;30;115303;-79
2023/01/30 01:04:01;;;;;;;37.92;16.60;;;-2.70;60.70;;;;;;4633728;30;114669;-78
2023/01/30 01:06:28;;;;;;;35.17;17.70;;;-2.70;60.90;;;;;;4635004;30;114873;-78
2023/01/30 01:08:55;;;;;;;36.33;16.65;;;-2.60;60.80;;;;;;4648036;30;120097;-77
2023/01/30 01:11:23;;;;;;;33.83;16.25;;;-2.60;60.80;;;;;;4632364;30;118212;-78
2023/01/30 01:13:55;;;;;;;37.28;18.85;;;-2.60;61.20;;;;;;4646776;30;114677;-78
2023/01/30 01:16:23;;;;;;;40.75;19.35;;;-2.60;61.30;;;;;;4634839;30;115140;-79
2023/01/30 01:18:50;;;;;;;45.08;21.80;;;-2.60;61.20;;;;;;4634182;30;114502;-77
2023/01/30 01:21:18;;;;;;;52.65;24.45;;;-2.60;61.00;;;;;;4632492;30;115283;-78
2023/01/30 01:23:53;;;;;;;55.38;25.25;;;-2.60;60.90;;;;;;4633444;30;116065;-79
2023/01/30 01:26:20;;;;;;;60.63;24.40;;;-2.70;60.90;;;;;;4646849;30;117406;-78
2023/01/30 01:28:55;;;;;;;52.75;22.63;;;-2.70;61.10;;;;;;4647601;30;115038;-77
2023/01/30 01:31:23;;;;;;;49.55;21.10;;;-2.70;61.30;;;;;;4632658;30;115760;-78
2023/01/30 01:33:55;;;;;;;48.10;22.35;;;-2.70;61.40;;;;;;4634291;30;114736;-77
2023/01/30 01:36:24;;;;;;;46.33;21.75;;;-2.70;61.60;;;;;;4650807;30;114414;-78
2023/01/30 01:39:13;;;;;;;60.88;24.25;;;-2.60;61.60;;;;;;4651734;30;114454;-78
2023/01/30 01:41:41;;;;;;;59.53;25.45;;;-2.60;61.50;;;;;;4650127;30;115427;-77
2023/01/30 01:44:10;;;;;;;65.60;27.05;;;-2.60;61.40;;;;;;4651365;30;114675;-78
2023/01/30 01:46:57;;;;;;;55.55;24.58;;;-2.60;61.50;;;;;;4636584;30;114504;-78
2023/01/30 01:49:34;;;;;;;51.38;24.50;;;-2.60;61.60;;;;;;4650528;30;114488;-78
2023/01/30 01:52:08;;;;;;;37.85;19.05;;;-2.60;61.40;;;;;;4635113;30;115922;-77
2023/01/30 01:54:56;;;;;;;52.00;25.00;;;-2.60;61.50;;;;;;4621311;30;114903;-78
2023/01/30 01:57:30;;;;;;;54.17;23.88;;;-2.60;61.30;;;;;;4636064;30;114934;-78
2023/01/30 02:00:12;;;;;;;43.10;22.45;;;-2.70;61.50;;;;;;4635921;30;115189;-78
2023/01/30 02:02:41;;;;;;;42.40;20.98;;;-2.70;61.20;;;;;;4649859;30;115219;-79
2023/01/30 02:05:11;;;;;;;47.40;22.35;;;-2.70;61.20;;;;;;4621408;30;116028;-78
2023/01/30 02:07:56;;;;;;;46.15;20.30;;;-2.80;61.20;;;;;;4636526;30;114587;-78
2023/01/30 02:10:39;;;;;;;44.63;21.58;;;-2.80;61.20;;;;;;4637243;30;114701;-78
2023/01/30 02:13:07;;;;;;;50.55;22.38;;;-2.80;61.10;;;;;;4622337;30;115488;-78
2023/01/30 02:15:34;;;;;;;52.55;22.52;;;-2.80;61.10;;;;;;4651036;30;114821;-78
2023/01/30 02:18:05;;;;;;;39.42;18.33;;;-2.80;61.30;;;;;;4636019;30;114616;-78
2023/01/30 02:21:16;;;;;;;30.35;14.82;;;-2.80;61.20;;;;;;4635779;30;114582;-78
2023/01/30 02:24:01;;;;;;;32.10;15.50;;;-2.80;61.20;;;;;;4638419;30;115219;-79
2023/01/30 02:26:52;;;;;;;27.33;14.65;;;-2.80;61.10;;;;;;4651839;30;116371;-77
2023/01/30 02:29:52;;;;;;;32.03;16.30;;;-2.80;60.90;;;;;;4652674;30;114524;-78
2023/01/30 02:32:45;;;;;;;37.85;18.23;;;-2.90;60.90;;;;;;4626293;30;114546;-77
2023/01/30 02:35:40;;;;;;;42.50;17.13;;;-2.90;60.90;;;;;;4652402;30;116014;-77
2023/01/30 02:38:32;;;;;;;37.97;19.08;;;-2.90;61.20;;;;;;4652130;30;114770;-77
2023/01/30 02:41:30;;;;;;;47.00;20.17;;;-2.90;61.30;;;;;;4652626;30;115339;-78
2023/01/30 02:44:17;;;;;;;50.70;20.90;;;-2.80;61.40;;;;;;4653569;30;114435;-78
2023/01/30 02:46:53;;;;;;;47.08;19.08;;;-2.80;61.30;;;;;;4608428;30;117869;-78
2023/01/30 02:49:35;;;;;;;50.00;22.48;;;-2.70;61.40;;;;;;4637377;30;115927;-78
2023/01/30 02:52:05;;;;;;;34.40;16.30;;;-2.70;61.10;;;;;;4638670;30;114623;-77
2023/01/30 02:54:33;;;;;;;36.85;18.58;;;-2.80;61.00;;;;;;4624012;30;114616;-77
2023/01/30 02:57:00;;;;;;;37.47;15.82;;;-2.70;61.10;;;;;;4637151;30;115504;-77
2023/01/30 02:59:40;;;;;;;34.33;15.30;;;-2.80;61.10;;;;;;4651444;30;114667;-78
2023/01/30 03:02:31;;;;;;;26.08;12.45;;;-2.80;61.10;;;;;;4623995;30;116359;-77
2023/01/30 03:05:41;;;;;;;30.23;13.63;;;-2.80;60.90;;;;;;4652492;30;114775;-78
2023/01/30 03:08:15;;;;;;;29.35;13.07;;;-2.80;60.90;;;;;;4632613;30;115281;-77
2023/01/30 03:10:53;;;;;;;;;;;-2.80;60.50;;;;;;4637406;30;114732;-78
2023/01/30 03:13:31;;;;;;;27.08;12.07;;;-3.00;60.70;;;;;;4637252;30;114553;-77
2023/01/30 03:16:32;;;;;;;28.27;12.55;;;-3.00;61.10;;;;;;4637217;30;115561;-78
2023/01/30 03:19:00;;;;;;;28.08;12.88;;;-2.90;61.20;;;;;;4633363;30;115209;-77
2023/01/30 03:21:27;;;;;;;24.08;11.60;;;-2.90;61.10;;;;;;4622944;30;114782;-78
2023/01/30 03:23:55;;;;;;;19.73;10.75;;;-2.90;61.00;;;;;;4638124;30;116960;-77
2023/01/30 03:26:27;;;;;;;21.20;10.88;;;-3.00;60.30;;;;;;4637675;30;114568;-77
2023/01/30 03:28:55;;;;;;;27.60;12.85;;;-3.10;60.80;;;;;;4622657;30;115638;-77
2023/01/30 03:31:22;;;;;;;23.73;11.52;;;-3.00;61.20;;;;;;4637890;30;115294;-78
2023/01/30 03:33:50;;;;;;;21.25;11.02;;;-3.00;60.90;;;;;;4651214;30;114548;-79
2023/01/30 03:36:17;;;;;;;23.35;11.88;;;-3.00;61.00;;;;;;4652465;30;114497;-79
2023/01/30 03:38:44;;;;;;;24.17;12.18;;;-3.00;61.10;;;;;;4636138;30;117349;-78
2023/01/30 03:41:11;;;;;;;22.30;12.38;;;-2.90;61.10;;;;;;4622384;30;115873;-77
2023/01/30 03:43:39;;;;;;;27.75;12.15;;;-2.80;61.10;;;;;;4635734;30;114527;-77
2023/01/30 03:46:06;;;;;;;27.35;11.68;;;-2.80;61.20;;;;;;4651877;30;114862;-77
2023/01/30 03:48:34;;;;;;;24.98;11.80;;;-2.70;61.40;;;;;;4622300;30;118477;-78
2023/01/30 03:51:01;;;;;;;24.92;13.27;;;-2.70;61.30;;;;;;4652290;30;114704;-77
2023/01/30 03:53:28;;;;;;;27.23;12.38;;;-2.70;61.30;;;;;;4637374;30;115411;-79
2023/01/30 03:55:55;;;;;;;22.88;11.80;;;-2.70;61.10;;;;;;4653500;30;114373;-79
2023/01/30 03:58:26;;;;;;;25.05;11.07;;;-2.70;60.90;;;;;;4650961;30;115052;-78
2023/01/30 04:00:56;;;;;;;24.40;12.50;;;-2.70;60.90;;;;;;4651062;30;114682;-79
2023/01/30 04:03:24;;;;;;;22.20;10.85;;;-2.70;60.90;;;;;;4651430;30;114482;-79
2023/01/30 04:05:55;;;;;;;18.48;9.70;;;-2.70;60.70;;;;;;4651681;30;114532;-79
2023/01/30 04:08:23;;;;;;;23.92;10.45;;;-2.80;60.60;;;;;;4650889;30;115086;-78
2023/01/30 04:10:50;;;;;;;21.60;9.52;;;-2.80;60.70;;;;;;4652016;30;114774;-78
2023/01/30 04:13:18;;;;;;;20.10;9.77;;;-2.80;60.90;;;;;;4623273;30;114636;-79
2023/01/30 04:15:45;;;;;;;20.02;9.25;;;-2.70;61.10;;;;;;4637553;30;114418;-79
2023/01/30 04:18:21;;;;;;;17.85;9.23;;;-2.70;61.00;;;;;;4650750;30;115209;-79
2023/01/30 04:21:03;;;;;;;22.13;9.45;;;-2.70;60.80;;;;;;4650688;30;114658;-79
2023/01/30 04:23:35;;;;;;;19.23;9.45;;;-2.70;60.70;;;;;;4623241;30;114615;-79
2023/01/30 04:26:04;;;;;;;18.42;9.05;;;-2.70;60.60;;;;;;4651296;30;114873;-78
2023/01/30 04:28:34;;;;;;;17.85;9.38;;;-2.70;60.60;;;;;;4649852;30;115273;-78
2023/01/30 04:31:02;;;;;;;24.10;11.77;;;-2.60;60.60;;;;;;4650301;30;114859;-78
2023/01/30 04:33:38;;;;;;;23.92;11.20;;;-2.60;60.60;;;;;;4651112;30;114599;-78
2023/01/30 04:36:08;;;;;;;23.63;11.60;;;-2.60;60.40;;;;;;4637175;30;114458;-79
2023/01/30 04:38:36;;;;;;;30.33;13.75;;;-2.60;59.90;;;;;;4635985;30;115086;-79
2023/01/30 04:41:04;;;;;;;26.73;13.98;;;-2.70;59.90;;;;;;4622170;30;114657;-78
2023/01/30 04:43:34;;;;;;;30.63;15.10;;;-2.70;60.10;;;;;;4623339;30;114588;-79
2023/01/30 04:46:20;;;;;;;34.80;15.75;;;-2.70;60.20;;;;;;4652174;30;114542;-79
2023/01/30 04:48:47;;;;;;;37.90;17.17;;;-2.60;60.30;;;;;;4650286;30;116552;-79
2023/01/30 04:51:14;;;;;;;41.38;18.15;;;-2.60;60.30;;;;;;4635819;30;114611;-80
2023/01/30 04:53:42;;;;;;;38.10;16.67;;;-2.60;60.40;;;;;;4638627;30;114825;-79
2023/01/30 04:56:10;;;;;;;33.78;16.23;;;-2.50;60.30;;;;;;4651683;30;114689;-78
2023/01/30 04:58:37;;;;;;;22.98;10.38;;;-2.40;60.30;;;;;;4651036;30;115557;-79
2023/01/30 05:01:19;;;;;;;21.88;10.65;;;-2.40;59.90;;;;;;4650876;30;115272;-79
2023/01/30 05:03:51;;;;;;;24.70;11.88;;;-2.50;60.10;;;;;;4637288;30;114617;-79
2023/01/30 05:06:19;;;;;;;21.35;10.18;;;-2.50;60.00;;;;;;4652645;30;115110;-79
2023/01/30 05:08:50;;;;;;;23.58;9.30;;;-2.50;60.10;;;;;;4635895;30;117882;-79
2023/01/30 05:11:18;;;;;;;20.33;9.55;;;-2.40;60.10;;;;;;4637005;30;114744;-80
2023/01/30 05:13:46;;;;;;;25.08;9.82;;;-2.40;60.20;;;;;;4652716;30;114433;-79
2023/01/30 05:16:14;;;;;;;18.48;8.68;;;-2.30;60.10;;;;;;4651118;30;114564;-79
2023/01/30 05:18:42;;;;;;;14.45;8.10;;;-2.30;59.90;;;;;;4650820;30;115196;-79
2023/01/30 05:21:14;;;;;;;14.32;7.72;;;-2.20;59.70;;;;;;4635537;30;115275;-80
2023/01/30 05:23:41;;;;;;;17.83;8.43;;;-2.10;59.60;;;;;;4636149;30;114819;-79
2023/01/30 05:26:15;;;;;;;16.25;7.75;;;-2.00;59.70;;;;;;4652188;30;115624;-79
2023/01/30 05:28:42;;;;;;;14.90;7.67;;;-1.90;59.40;;;;;;4635768;30;116211;-79
2023/01/30 05:31:12;;;;;;;18.20;8.25;;;-1.90;59.50;;;;;;4631335;30;114838;-79
2023/01/30 05:33:40;;;;;;;15.77;7.80;;;-1.80;59.50;;;;;;4636314;30;114443;-79
2023/01/30 05:36:09;;;;;;;17.35;7.18;;;-1.70;59.50;;;;;;4636996;30;114411;-79
2023/01/30 05:38:36;;;;;;;15.43;7.35;;;-1.70;58.60;;;;;;4635778;30;115234;-79
2023/01/30 05:41:05;;;;;;;17.58;8.93;;;-1.70;58.60;;;;;;4651384;30;114656;-80
2023/01/30 05:43:34;;;;;;;17.42;8.75;;;-1.60;58.60;;;;;;4651454;30;114447;-80
2023/01/30 05:46:03;;;;;;;16.08;6.82;;;-1.60;58.60;;;;;;4650762;30;114664;-79
2023/01/30 05:48:31;;;;;;;14.82;7.20;;;-1.50;58.70;;;;;;4650767;30;115144;-79
2023/01/30 05:50:59;;;;;;;19.08;10.07;;;-1.50;58.70;;;;;;4649849;30;114833;-80
2023/01/30 05:53:28;;;;;;;14.95;7.93;;;-1.50;58.60;;;;;;4622442;30;114466;-79
2023/01/30 05:56:03;;;;;;;12.63;7.85;;;-1.40;58.50;;;;;;4652682;30;114649;-79
2023/01/30 05:58:31;;;;;;;11.73;7.03;;;-1.40;58.40;;;;;;4624669;30;116450;-79
2023/01/30 06:01:02;;;;;;;12.30;7.30;;;-1.40;58.50;;;;;;4638515;30;114727;-80
2023/01/30 06:03:30;;;;;;;13.15;7.03;;;-1.40;58.10;;;;;;4653495;30;114613;-79
2023/01/30 06:05:57;;;;;;;15.50;7.88;;;-1.30;58.00;;;;;;4654468;30;115300;-79
2023/01/30 06:08:24;;;;;;;14.30;7.50;;;-1.30;57.80;;;;;;4637753;30;115242;-79
2023/01/30 06:10:52;;;;;;;11.80;6.75;;;-1.30;57.60;;;;;;4652538;30;114884;-79
2023/01/30 06:13:19;;;;;;;15.40;7.10;;;-1.30;57.20;;;;;;4639440;30;114687;-80
2023/01/30 06:15:46;;;;;;;12.48;7.32;;;-1.30;57.40;;;;;;4639042;30;114763;-79
2023/01/30 06:18:14;;;;;;;13.23;7.70;;;-1.30;57.40;;;;;;4653259;30;115563;-80
2023/01/30 06:20:46;;;;;;;13.13;7.00;;;-1.40;57.00;;;;;;4652131;30;114665;-80
2023/01/30 06:23:13;;;;;;;12.48;7.03;;;-1.40;56.90;;;;;;4653445;30;114414;-79
2023/01/30 06:25:47;;;;;;;11.70;7.00;;;-1.30;57.10;;;;;;4652159;30;114707;-79
2023/01/30 06:28:15;;;;;;;12.20;7.15;;;-1.40;57.00;;;;;;4651580;30;116482;-80
2023/01/30 06:30:42;;;;;;;12.75;7.47;;;-1.40;57.10;;;;;;4637804;30;114701;-79
2023/01/30 06:33:10;;;;;;;12.45;7.35;;;-1.40;56.90;;;;;;4638284;30;114758;-79
2023/01/30 06:35:38;;;;;;;12.10;6.28;;;-1.40;56.90;;;;;;4653812;30;114609;-79
2023/01/30 06:38:05;;;;;;;14.00;6.50;;;-1.40;56.80;;;;;;4637517;30;115623;-78
2023/01/30 06:40:32;;;;;;;13.02;7.03;;;-1.40;56.90;;;;;;4637418;30;114811;-79
2023/01/30 06:42:59;;;;;;;20.38;10.13;;;-1.30;56.90;;;;;;4654180;30;114775;-79
2023/01/30 06:45:27;;;;;;;20.95;10.80;;;-1.40;56.90;;;;;;4653993;30;114772;-79
2023/01/30 06:47:54;;;;;;;19.50;10.10;;;-1.50;57.10;;;;;;4652807;30;115123;-79
2023/01/30 06:50:26;;;;;;;22.30;11.20;;;-1.50;57.40;;;;;;4637701;30;118799;-79
2023/01/30 06:52:57;;;;;;;21.52;12.32;;;-1.50;57.40;;;;;;4652526;30;114822;-79
2023/01/30 06:55:25;;;;;;;22.30;11.43;;;-1.60;57.60;;;;;;4638266;30;114598;-79
2023/01/30 06:58:11;;;;;;;24.35;11.05;;;-1.60;57.70;;;;;;4651293;30;115154;-79
2023/01/30 07:00:40;;;;;;;22.75;11.13;;;-1.60;57.80;;;;;;4637710;30;114756;-79
2023/01/30 07:03:15;;;;;;;21.83;11.57;;;-1.80;57.80;;;;;;4652667;30;114665;-79
2023/01/30 07:05:44;;;;;;;22.77;11.43;;;-1.70;58.10;;;;;;4638287;30;114528;-78
2023/01/30 07:08:12;;;;;;;24.45;11.57;;;-1.70;58.20;;;;;;4650694;30;115235;-79
2023/01/30 07:10:40;;;;;;;26.42;11.98;;;-1.60;58.40;;;;;;4637278;30;115436;-79
2023/01/30 07:13:07;;;;;;;22.20;11.10;;;-1.60;58.50;;;;;;4652583;30;114646;-78
2023/01/30 07:15:34;;;;;;;23.02;11.98;;;-1.50;58.70;;;;;;4637532;30;115304;-78
2023/01/30 07:18:01;;;;;;;25.00;12.63;;;-1.50;58.80;;;;;;4652710;30;115318;-78
2023/01/30 07:20:30;;;;;;;23.35;12.00;;;-1.40;58.80;;;;;;4636509;30;115908;-78
2023/01/30 07:22:57;;;;;;;25.65;13.68;;;-1.30;58.90;;;;;;4653026;30;114442;-78
2023/01/30 07:25:25;;;;;;;28.00;13.48;;;-1.30;58.90;;;;;;4653582;30;114657;-78
2023/01/30 07:28:00;;;;;;;26.88;13.90;;;-1.20;58.90;;;;;;4637186;30;115371;-78
2023/01/30 07:30:29;;;;;;;24.67;12.88;;;-1.10;58.80;;;;;;4637521;30;115292;-78
2023/01/30 07:32:58;;;;;;;29.33;15.98;;;-1.10;58.80;;;;;;4638327;30;114804;-78
2023/01/30 07:35:27;;;;;;;24.85;12.73;;;-1.10;58.70;;;;;;4653026;30;114696;-78
2023/01/30 07:37:55;;;;;;;20.75;10.45;;;-1.10;58.70;;;;;;4651183;30;115715;-78
2023/01/30 07:40:22;;;;;;;22.20;11.98;;;-1.10;58.60;;;;;;4652769;30;114966;-78
2023/01/30 07:43:07;;;;;;;18.73;10.35;;;-1.10;58.50;;;;;;4652163;30;114765;-79
2023/01/30 07:45:45;;;;;;;17.48;10.00;;;-1.10;58.30;;;;;;4666281;30;114741;-78
2023/01/30 07:48:15;;;;;;;14.70;8.10;;;-1.10;58.30;;;;;;4651762;30;115582;-78
2023/01/30 07:50:42;;;;;;;15.27;8.40;;;-1.10;58.10;;;;;;4652112;30;114764;-78
2023/01/30 07:53:12;;;;;;;16.80;8.30;;;-1.10;58.30;;;;;;4666251;30;115091;-78
2023/01/30 07:55:39;;;;;;;16.85;8.10;;;-1.10;58.20;;;;;;4637566;30;114579;-78
2023/01/30 07:58:07;;;;;;;14.45;8.40;;;-1.10;58.20;;;;;;4636922;30;115268;-79
2023/01/30 08:00:34;;;;;;;14.65;7.75;;;-1.00;58.30;;;;;;4650953;30;114594;-78
2023/01/30 08:03:01;;;;;;;15.60;8.60;;;-1.00;58.40;;;;;;4653035;30;114462;-78
2023/01/30 08:05:28;;;;;;;19.75;8.77;;;-0.90;58.50;;;;;;4637635;30;114528;-79
2023/01/30 08:07:56;;;;;;;15.48;8.40;;;-0.90;58.60;;;;;;4650711;30;115159;-79
2023/01/30 08:10:23;;;;;;;12.65;7.30;;;-0.90;58.50;;;;;;4636637;30;115767;-78
2023/01/30 08:12:51;;;;;;;16.48;8.77;;;-0.90;58.60;;;;;;4637173;30;114900;-78
2023/01/30 08:15:18;;;;;;;17.40;8.43;;;-0.80;58.70;;;;;;4651217;30;114544;-78
2023/01/30 08:17:55;;;;;;;15.10;8.10;;;-0.80;58.70;;;;;;4651592;30;115300;-79
2023/01/30 08:20:23;;;;;;;;;;;-0.80;58.80;;;;;;4636480;30;114832;-79
2023/01/30 08:22:53;;;;;;;16.40;8.40;;;-0.80;58.80;;;;;;4665669;30;114638;-78
2023/01/30 08:25:22;;;;;;;15.02;8.43;;;-0.80;58.80;;;;;;4636156;30;114531;-79
2023/01/30 08:27:49;;;;;;;14.98;9.05;;;-0.70;58.90;;;;;;4651377;30;115204;-79
2023/01/30 08:30:17;;;;;;;17.75;8.60;;;-0.60;59.00;;;;;;4650637;30;114873;-80
2023/01/30 08:32:45;;;;;;;14.55;8.07;;;-0.60;59.00;;;;;;4637289;30;114495;-78
2023/01/30 08:35:27;;;;;;;15.57;8.75;;;-0.60;59.10;;;;;;4651962;30;114590;-79
2023/01/30 08:37:54;;;;;;;14.63;8.00;;;-0.50;59.10;;;;;;4651227;30;115112;-79
2023/01/30 08:40:21;;;;;;;13.95;7.78;;;-0.50;59.10;;;;;;4651371;30;114886;-79
2023/01/30 08:42:49;;;;;;;13.57;8.70;;;-0.50;59.10;;;;;;4636586;30;114530;-78
2023/01/30 08:45:16;;;;;;;15.80;8.20;;;-0.40;59.10;;;;;;4651963;30;114764;-79
2023/01/30 08:47:47;;;;;;;16.35;9.00;;;-0.50;59.10;;;;;;4635960;30;115910;-79
2023/01/30 08:50:19;;;;;;;17.42;8.43;;;-0.40;59.20;;;;;;4651184;30;114888;-79
2023/01/30 08:52:49;;;;;;;16.08;8.63;;;-0.40;59.30;;;;;;4651897;30;114661;-80
2023/01/30 08:55:17;;;;;;;14.77;8.65;;;-0.40;59.30;;;;;;4652522;30;114670;-80
2023/01/30 08:57:47;;;;;;;14.75;8.15;;;-0.30;59.40;;;;;;4622209;30;115414;-79
2023/01/30 09:00:18;;;;;;;11.93;7.57;;;-0.30;59.50;;;;;;4649703;30;115849;-79
2023/01/30 09:02:45;;;;;;;15.15;8.60;;;-0.30;59.50;;;;;;4651408;30;115499;-79
2023/01/30 09:05:13;;;;;;;15.35;8.85;;;-0.20;59.50;;;;;;4651909;30;114809;-79
2023/01/30 09:07:40;;;;;;;14.77;8.48;;;-0.10;59.60;;;;;;4649759;30;115148;-79
2023/01/30 09:10:08;;;;;;;13.57;7.85;;;-0.10;59.70;;;;;;4635754;30;119384;-78
2023/01/30 09:12:35;;;;;;;15.63;8.55;;;0.00;59.50;;;;;;4651887;30;114511;-78
2023/01/30 09:15:06;;;;;;;15.18;8.10;;;0.10;59.40;;;;;;4650405;30;114861;-78
2023/01/30 09:17:33;;;;;;;14.55;8.27;;;0.10;59.50;;;;;;4607252;30;115421;-78
2023/01/30 09:20:00;;;;;;;13.60;8.38;;;0.10;59.40;;;;;;4635870;30;114732;-78
2023/01/30 09:22:28;;;;;;;17.33;8.07;;;0.20;59.50;;;;;;4635350;30;115898;-78
2023/01/30 09:24:55;;;;;;;14.82;8.40;;;0.20;59.40;;;;;;4651279;30;114703;-79
2023/01/30 09:27:27;;;;;;;15.45;8.60;;;0.30;59.30;;;;;;4650319;30;115235;-79
2023/01/30 09:29:54;;;;;;;15.70;8.93;;;0.30;59.20;;;;;;4619519;30;115125;-79
2023/01/30 09:32:25;;;;;;;15.73;8.07;;;0.30;59.20;;;;;;4650960;30;114262;-78
2023/01/30 09:34:55;;;;;;;19.52;9.15;;;0.30;59.10;;;;;;4649246;30;114916;-79
2023/01/30 09:37:22;;;;;;;13.73;9.15;;;0.30;59.10;;;;;;4650674;30;115029;-79
2023/01/30 09:39:50;;;;;;;17.77;8.80;;;0.30;59.20;;;;;;4649353;30;115180;-79
2023/01/30 09:42:36;;;;;;;17.05;9.43;;;0.30;59.50;;;;;;4636011;30;114524;-79
2023/01/30 09:45:38;;;;;;;12.52;7.88;;;0.40;59.50;;;;;;4651569;30;114399;-79
2023/01/30 09:48:35;;;;;;;15.63;8.85;;;0.30;59.40;;;;;;4648979;30;115154;-78
2023/01/30 09:51:33;;;;;;;15.02;8.68;;;0.40;59.60;;;;;;4649108;30;114779;-78
2023/01/30 09:54:16;;;;;;;14.48;7.43;;;0.40;59.60;;;;;;4635552;30;114597;-78
2023/01/30 09:56:54;;;;;;;16.13;7.80;;;0.30;59.50;;;;;;4649765;30;114409;-79
2023/01/30 09:59:31;;;;;;;18.60;8.80;;;0.30;59.50;;;;;;4620676;30;118033;-78
2023/01/30 10:02:38;;;;;;;16.13;8.02;;;0.30;59.70;;;;;;4635307;30;115083;-78
2023/01/30 10:05:06;;;;;;;14.18;8.82;;;0.20;59.70;;;;;;4626609;30;116507;-78
2023/01/30 10:08:10;;;;;;;15.32;9.15;;;0.20;59.80;;;;;;4621824;30;114700;-79
2023/01/30 10:11:21;;;;;;;15.95;8.80;;;0.30;59.90;;;;;;4620517;30;118301;-79
2023/01/30 10:14:41;;;;;;;15.43;8.13;;;0.30;59.90;;;;;;4634833;30;114691;-78
2023/01/30 10:17:51;;;;;;;13.05;7.63;;;0.40;60.20;;;;;;4635606;30;114881;-78
2023/01/30 10:20:30;;;;;;;17.63;10.07;;;0.40;60.40;;;;;;4651127;30;114904;-79
2023/01/30 10:23:54;;;;;;;14.73;9.15;;;0.40;60.50;;;;;;4634051;30;120548;-78
2023/01/30 10:26:26;;;;;;;16.50;9.35;;;0.40;60.90;;;;;;4613665;30;116058;-78
2023/01/30 10:29:22;;;;;;;16.08;9.38;;;0.40;61.20;;;;;;4624722;30;114374;-80
2023/01/30 10:31:57;;;;;;;16.23;9.48;;;0.30;61.50;;;;;;4650189;30;114481;-78
2023/01/30 10:34:49;;;;;;;16.20;8.55;;;0.30;61.70;;;;;;4634877;30;116593;-78
2023/01/30 10:37:29;;;;;;;18.90;9.35;;;0.20;62.00;;;;;;4641909;30;114930;-78
2023/01/30 10:40:12;;;;;;;16.23;9.15;;;0.20;62.10;;;;;;4651279;30;114779;-78
2023/01/30 10:42:49;;;;;;;16.13;8.80;;;0.30;62.50;;;;;;4636050;30;114695;-77
2023/01/30 10:45:20;;;;;;;20.23;10.55;;;0.30;62.40;;;;;;4637885;30;115881;-79
2023/01/30 10:48:11;;;;;;;19.88;9.90;;;0.30;62.40;;;;;;4637730;30;114670;-78
2023/01/30 10:50:49;;;;;;;20.55;9.40;;;0.30;62.70;;;;;;4651835;30;114524;-79
2023/01/30 10:53:42;;;;;;;16.88;9.75;;;0.30;62.60;;;;;;4653019;30;114414;-80
2023/01/30 10:56:32;;;;;;;18.08;9.80;;;0.40;62.60;;;;;;4639315;30;115643;-79
2023/01/30 10:59:28;;;;;;;17.55;9.70;;;0.40;62.50;;;;;;4625016;30;119162;-78
2023/01/30 11:02:24;;;;;;;20.27;10.20;;;0.40;62.60;;;;;;4652731;30;114768;-79
2023/01/30 11:05:20;;;;;;;19.88;10.10;;;0.50;62.50;;;;;;4637970;30;114539;-77
2023/01/30 11:07:47;;;;;;;17.50;9.95;;;0.50;62.40;;;;;;4637423;30;115869;-78
2023/01/30 11:10:23;;;;;;;16.77;9.00;;;0.50;62.40;;;;;;4651808;30;114733;-78
2023/01/30 11:12:59;;;;;;;16.33;9.05;;;0.60;62.30;;;;;;4653819;30;114794;-78
2023/01/30 11:15:40;;;;;;;16.88;9.27;;;0.50;62.20;;;;;;4637622;30;114615;-79
2023/01/30 11:18:07;;;;;;;15.93;9.05;;;0.60;62.20;;;;;;4650892;30;115209;-79
2023/01/30 11:21:04;;;;;;;17.40;8.80;;;0.50;62.00;;;;;;4636043;30;118453;-79
2023/01/30 11:23:41;;;;;;;13.55;8.07;;;0.60;62.00;;;;;;4637712;30;115508;-79
2023/01/30 11:26:41;;;;;;;14.00;7.88;;;0.50;61.90;;;;;;4652314;30;116683;-78
2023/01/30 11:29:29;;;;;;;15.77;10.18;;;0.60;61.70;;;;;;4633799;30;115867;-78
2023/01/30 11:32:04;;;;;;;17.73;9.07;;;0.60;61.90;;;;;;4650723;30;114896;-79
2023/01/30 11:34:32;;;;;;;14.25;8.30;;;0.60;61.90;;;;;;4651100;30;114479;-78
2023/01/30 11:37:29;;;;;;;12.65;7.93;;;0.60;61.80;;;;;;4653282;30;114689;-78
2023/01/30 11:39:57;;;;;;;14.57;7.97;;;0.60;61.80;;;;;;4633640;30;116547;-79
2023/01/30 11:42:30;;;;;;;14.75;8.02;;;0.60;61.80;;;;;;4619185;30;118525;-78
2023/01/30 11:44:58;;;;;;;12.43;7.47;;;0.60;62.00;;;;;;4635388;30;114399;-78
2023/01/30 11:47:57;;;;;;;14.30;7.40;;;0.70;62.00;;;;;;4639766;30;114832;-79
2023/01/30 11:50:37;;;;;;;13.20;7.78;;;0.70;62.10;;;;;;4637599;30;115518;-79
2023/01/30 11:53:35;;;;;;;14.85;8.63;;;0.70;62.00;;;;;;4623328;30;118184;-79
2023/01/30 11:56:14;;;;;;;14.05;7.72;;;0.70;62.20;;;;;;4622730;30;114624;-78
2023/01/30 11:58:45;;;;;;;14.93;7.95;;;0.80;62.10;;;;;;4637801;30;114740;-77
2023/01/30 12:01:12;;;;;;;12.77;7.38;;;0.80;62.10;;;;;;4636422;30;115888;-78
2023/01/30 12:03:48;;;;;;;14.55;7.68;;;0.80;62.00;;;;;;4637325;30;114848;-78
2023/01/30 12:06:34;;;;;;;11.77;7.30;;;0.90;61.90;;;;;;4651711;30;114670;-78
2023/01/30 12:09:02;;;;;;;14.50;7.57;;;0.90;61.80;;;;;;4623444;30;114785;-78
2023/01/30 12:11:41;;;;;;;12.18;7.30;;;0.90;61.80;;;;;;4650270;30;115261;-80
2023/01/30 12:14:39;;;;;;;14.60;7.35;;;0.90;61.70;;;;;;4651873;30;115053;-79
2023/01/30 12:17:13;;;;;;;13.25;6.95;;;1.00;61.70;;;;;;4637282;30;114729;-78
2023/01/30 12:19:46;;;;;;;10.88;7.15;;;0.90;61.50;;;;;;4637525;30;114434;-78
2023/01/30 12:22:27;;;;;;;11.60;7.10;;;1.00;61.60;;;;;;4651484;30;115768;-77
2023/01/30 12:24:58;;;;;;;11.52;6.78;;;1.10;61.70;;;;;;4636602;30;114879;-79
2023/01/30 12:28:02;;;;;;;17.40;8.25;;;1.10;61.60;;;;;;4651340;30;114715;-78
2023/01/30 12:30:55;;;;;;;13.05;7.15;;;1.10;61.50;;;;;;4637594;30;114527;-79
2023/01/30 12:33:27;;;;;;;13.35;7.45;;;1.20;61.50;;;;;;4636201;30;117723;-77
2023/01/30 12:36:16;;;;;;;12.77;7.32;;;1.20;61.40;;;;;;4635904;30;114622;-79
2023/01/30 12:39:24;;;;;;;12.73;7.65;;;1.20;61.30;;;;;;4650320;30;114516;-78
2023/01/30 12:42:06;;;;;;;14.23;7.47;;;1.20;61.40;;;;;;4651174;30;114639;-78
2023/01/30 12:44:54;;;;;;;12.35;7.00;;;1.20;61.60;;;;;;4621485;30;118068;-78
2023/01/30 12:47:35;;;;;;;15.38;7.72;;;1.20;61.60;;;;;;4651724;30;114789;-78
2023/01/30 12:50:38;;;;;;;12.77;7.18;;;1.20;61.70;;;;;;4636607;30;115958;-79
2023/01/30 12:53:31;;;;;;;12.07;7.45;;;1.20;61.90;;;;;;4650935;30;114625;-79
2023/01/30 12:56:10;;;;;;;13.07;7.43;;;1.20;62.10;;;;;;4651433;30;115138;-79
2023/01/30 12:58:51;;;;;;;12.88;7.75;;;1.20;62.30;;;;;;4650557;30;114784;-79
2023/01/30 13:01:43;;;;;;;13.52;8.52;;;1.20;62.40;;;;;;4637421;30;114417;-79
2023/01/30 13:04:26;;;;;;;14.38;7.80;;;1.20;62.90;;;;;;4651321;30;114801;-78
2023/01/30 13:07:25;;;;;;;14.93;8.43;;;1.10;63.10;;;;;;4634340;30;119591;-80
2023/01/30 13:10:03;;;;;;;13.68;7.95;;;1.10;63.40;;;;;;4621662;30;117957;-79